Time;durP1;ratioP1;P1;durP2;ratioP2;P2;SDS_P1;SDS_P2;PMS_P1;PMS_P2;Temp;Humidity;BMP_temperature;BMP_pressure;BME280_temperature;BME280_humidity;BME280_pressure;Samples;Min_cycle;Max_cycle;Signal;HPM_P1;HPM_P2
2023/03/11 00:02:15;;;;;;;2.63;1.17;;;1.20;99.90;;;;;;5045843;28;20585;-77
2023/03/11 00:04:41;;;;;;;0.80;0.43;;;1.20;99.90;;;;;;5045879;28;20045;-77
2023/03/11 00:07:08;;;;;;;0.80;0.50;;;1.20;99.90;;;;;;5027975;28;20049;-77
2023/03/11 00:09:35;;;;;;;0.87;0.63;;;1.20;99.90;;;;;;5046216;28;20033;-77
2023/03/11 00:12:01;;;;;;;1.77;1.03;;;1.20;99.90;;;;;;5046005;28;20094;-78
2023/03/11 00:14:27;;;;;;;1.70;1.20;;;1.20;99.90;;;;;;5062795;28;20132;-76
2023/03/11 00:16:52;;;;;;;0.57;0.53;;;1.20;99.90;;;;;;5012089;28;20256;-76
2023/03/11 00:19:18;;;;;;;1.23;0.77;;;1.20;99.90;;;;;;5044946;28;20044;-76
2023/03/11 00:21:43;;;;;;;4.47;0.70;;;1.10;99.90;;;;;;5046526;28;20459;-77
2023/03/11 00:24:09;;;;;;;35.67;1.90;;;1.10;99.90;;;;;;5027815;28;20056;-77
2023/03/11 00:26:35;;;;;;;3.37;0.70;;;1.20;99.90;;;;;;5028181;28;20032;-77
2023/03/11 00:29:01;;;;;;;10.40;0.90;;;1.20;99.90;;;;;;5045750;28;20074;-77
2023/03/11 00:31:27;;;;;;;1.03;0.57;;;1.20;99.90;;;;;;5011178;28;20033;-77
2023/03/11 00:33:53;;;;;;;2.73;1.20;;;1.10;99.90;;;;;;5044768;28;20117;-76
2023/03/11 00:36:27;;;;;;;0.63;0.50;;;1.10;99.90;;;;;;5027975;28;20037;-77
2023/03/11 00:38:53;;;;;;;1.37;0.30;;;1.10;99.90;;;;;;5027967;28;20088;-77
2023/03/11 00:41:19;;;;;;;0.53;0.50;;;1.10;99.90;;;;;;5027773;28;20094;-77
2023/03/11 00:43:45;;;;;;;18.30;0.70;;;1.10;99.90;;;;;;5027941;28;20439;-77
2023/03/11 00:46:10;;;;;;;2.53;0.90;;;1.10;99.90;;;;;;5045094;28;20037;-77
2023/03/11 00:48:36;;;;;;;2.43;0.60;;;1.10;99.90;;;;;;5044827;28;20044;-77
2023/03/11 00:51:02;;;;;;;5.47;0.87;;;1.10;99.90;;;;;;5045414;28;20500;-77
2023/03/11 00:53:28;;;;;;;2.47;0.50;;;1.10;99.90;;;;;;5045670;28;20051;-77
2023/03/11 00:55:53;;;;;;;0.43;0.30;;;1.10;99.90;;;;;;5027577;28;20037;-77
2023/03/11 00:58:21;;;;;;;1.07;0.60;;;1.10;99.90;;;;;;5045329;28;20824;-77
2023/03/11 01:00:47;;;;;;;1.10;0.77;;;1.00;99.90;;;;;;5045451;28;20048;-77
2023/03/11 01:03:13;;;;;;;1.20;0.70;;;1.00;99.90;;;;;;5025972;28;20053;-77
2023/03/11 01:05:39;;;;;;;1.73;1.10;;;1.10;99.90;;;;;;5060846;28;20063;-77
2023/03/11 01:08:05;;;;;;;1.27;0.77;;;1.00;99.90;;;;;;5027158;28;20072;-77
2023/03/11 01:10:32;;;;;;;1.17;0.40;;;1.10;99.90;;;;;;5045061;28;20731;-78
2023/03/11 01:12:58;;;;;;;8.73;1.43;;;1.00;99.90;;;;;;5027690;28;20051;-77
2023/03/11 01:15:35;;;;;;;3.57;1.43;;;1.00;99.90;;;;;;5044821;28;20120;-77
2023/03/11 01:18:01;;;;;;;1.80;1.07;;;1.00;99.90;;;;;;5018193;28;20412;-78
2023/03/11 01:20:27;;;;;;;1.37;0.60;;;1.00;99.90;;;;;;5038037;28;20029;-77
2023/03/11 01:22:53;;;;;;;1.70;0.77;;;1.00;99.90;;;;;;5025417;28;20037;-77
2023/03/11 01:25:22;;;;;;;1.13;0.47;;;1.00;99.90;;;;;;5007200;28;20052;-77
2023/03/11 01:27:47;;;;;;;1.03;0.93;;;1.00;99.90;;;;;;5038461;28;20045;-77
2023/03/11 01:30:17;;;;;;;0.77;0.57;;;1.00;99.90;;;;;;5010375;28;20094;-77
2023/03/11 01:32:43;;;;;;;1.40;1.13;;;1.10;99.90;;;;;;5044188;28;20037;-77
2023/03/11 01:35:12;;;;;;;0.73;0.73;;;1.10;99.90;;;;;;5027203;28;20045;-77
2023/03/11 01:37:37;;;;;;;0.80;0.80;;;1.10;99.90;;;;;;5026969;28;20048;-77
2023/03/11 01:40:04;;;;;;;3.83;0.80;;;1.10;99.90;;;;;;5043948;28;20045;-77
2023/03/11 01:42:29;;;;;;;1.40;0.70;;;1.10;99.90;;;;;;5043631;28;20455;-77
2023/03/11 01:44:55;;;;;;;2.50;1.40;;;1.10;99.90;;;;;;5044908;28;20555;-77
2023/03/11 01:47:47;;;;;;;1.33;0.67;;;1.10;99.90;;;;;;5026281;28;20459;-77
2023/03/11 01:50:13;;;;;;;1.05;1.05;;;1.10;99.90;;;;;;5021803;28;20084;-77
2023/03/11 01:52:41;;;;;;;0.90;0.43;;;1.10;99.90;;;;;;5027110;28;20048;-77
2023/03/11 01:55:07;;;;;;;1.27;0.70;;;1.10;99.90;;;;;;5043996;28;20541;-77
2023/03/11 01:57:33;;;;;;;0.67;0.40;;;1.10;99.90;;;;;;5044463;28;20132;-77
2023/03/11 02:00:00;;;;;;;0.10;0.10;;;1.10;99.90;;;;;;5044838;28;20108;-77
2023/03/11 02:02:40;;;;;;;3.33;1.20;;;1.00;99.90;;;;;;5026319;28;20107;-77
2023/03/11 02:05:06;;;;;;;0.67;0.60;;;1.00;99.90;;;;;;5043538;28;20044;-77
2023/03/11 02:07:32;;;;;;;2.47;1.50;;;1.00;99.90;;;;;;5044948;28;20037;-77
2023/03/11 02:09:58;;;;;;;2.00;0.50;;;1.00;99.90;;;;;;5026739;28;20055;-77
2023/03/11 02:12:27;;;;;;;0.30;0.30;;;1.00;99.90;;;;;;5043957;28;20405;-77
2023/03/11 02:14:53;;;;;;;1.23;0.40;;;1.00;99.90;;;;;;5026035;28;20099;-77
2023/03/11 02:17:19;;;;;;;0.30;0.30;;;0.90;99.90;;;;;;5026220;28;20111;-77
2023/03/11 02:20:00;;;;;;;1.63;1.17;;;0.90;99.90;;;;;;5043335;28;20045;-77
2023/03/11 02:22:28;;;;;;;1.00;0.50;;;0.90;99.90;;;;;;5026492;28;20393;-77
2023/03/11 02:25:11;;;;;;;3.33;2.07;;;0.80;99.90;;;;;;5044308;28;20040;-77
2023/03/11 02:27:40;;;;;;;1.05;0.85;;;0.90;99.90;;;;;;5043879;28;20033;-77
2023/03/11 02:30:09;;;;;;;6.73;0.80;;;0.90;99.90;;;;;;5025394;28;20041;-77
2023/03/11 02:32:35;;;;;;;3.33;1.43;;;0.80;99.90;;;;;;5043368;28;20448;-77
2023/03/11 02:35:01;;;;;;;8.87;1.63;;;0.90;99.90;;;;;;5026278;28;20147;-77
2023/03/11 02:37:27;;;;;;;0.80;0.40;;;0.80;99.90;;;;;;5044647;28;20052;-77
2023/03/11 02:39:54;;;;;;;0.53;0.30;;;0.90;99.90;;;;;;5043769;28;20052;-77
2023/03/11 02:42:27;;;;;;;1.67;1.47;;;0.90;99.90;;;;;;5043810;28;20041;-77
2023/03/11 02:45:06;;;;;;;4.03;2.03;;;0.90;99.90;;;;;;5025537;28;20056;-77
2023/03/11 02:47:33;;;;;;;0.70;0.70;;;0.80;99.90;;;;;;5043010;28;20037;-77
2023/03/11 02:49:59;;;;;;;2.43;0.80;;;0.80;99.90;;;;;;5026052;28;20304;-77
2023/03/11 02:52:27;;;;;;;1.03;0.90;;;0.80;99.90;;;;;;5026502;28;20099;-77
2023/03/11 02:54:53;;;;;;;1.43;0.53;;;0.80;99.90;;;;;;5044544;28;20041;-76
2023/03/11 02:57:18;;;;;;;2.80;1.10;;;0.70;99.90;;;;;;5047633;28;20045;-77
2023/03/11 02:59:44;;;;;;;0.90;0.67;;;0.80;99.90;;;;;;5029368;28;20717;-77
2023/03/11 03:02:09;;;;;;;0.77;0.77;;;0.80;99.90;;;;;;5047142;28;20044;-77
2023/03/11 03:04:35;;;;;;;1.13;0.70;;;0.70;99.90;;;;;;5047556;28;20510;-77
2023/03/11 03:07:01;;;;;;;0.43;0.33;;;0.70;99.90;;;;;;5046805;28;20036;-77
2023/03/11 03:09:26;;;;;;;2.30;1.47;;;0.70;99.90;;;;;;5047660;28;20048;-77
2023/03/11 03:11:52;;;;;;;1.90;0.83;;;0.70;99.90;;;;;;5013394;28;20441;-76
2023/03/11 03:14:17;;;;;;;1.37;0.73;;;0.70;99.90;;;;;;5047049;28;20052;-77
2023/03/11 03:16:43;;;;;;;0.63;0.40;;;0.70;99.90;;;;;;5047139;28;20045;-76
2023/03/11 03:19:08;;;;;;;0.60;0.37;;;0.60;99.90;;;;;;5061692;28;20037;-77
2023/03/11 03:21:34;;;;;;;1.17;0.60;;;0.70;99.90;;;;;;5029442;28;20037;-77
2023/03/11 03:24:00;;;;;;;4.47;2.10;;;0.70;99.90;;;;;;5046593;28;20037;-76
2023/03/11 03:26:25;;;;;;;1.80;0.60;;;0.60;99.90;;;;;;5029831;28;20119;-77
2023/03/11 03:28:51;;;;;;;4.97;1.43;;;0.60;99.90;;;;;;5047202;28;20406;-76
2023/03/11 03:31:16;;;;;;;1.93;0.80;;;0.60;99.90;;;;;;5046836;28;20041;-76
2023/03/11 03:33:42;;;;;;;0.57;0.57;;;0.60;99.90;;;;;;5046225;28;20475;-76
2023/03/11 03:36:10;;;;;;;1.73;0.30;;;0.60;99.90;;;;;;5046602;28;20067;-76
2023/03/11 03:38:35;;;;;;;2.53;1.27;;;0.60;99.90;;;;;;5046756;28;20048;-76
2023/03/11 03:41:01;;;;;;;2.33;1.13;;;0.60;99.90;;;;;;5046767;28;20041;-76
2023/03/11 03:43:26;;;;;;;1.43;0.63;;;0.60;99.90;;;;;;5047902;28;20420;-76
2023/03/11 03:46:01;;;;;;;6.43;0.80;;;0.60;99.90;;;;;;5028634;28;20087;-76
2023/03/11 03:48:27;;;;;;;3.43;1.07;;;0.60;99.90;;;;;;5028509;28;20562;-76
2023/03/11 03:50:53;;;;;;;1.43;0.60;;;0.60;99.90;;;;;;5028822;28;20045;-76
2023/03/11 03:53:19;;;;;;;2.73;0.67;;;0.50;99.90;;;;;;5046432;28;20602;-76
2023/03/11 03:55:45;;;;;;;1.70;0.50;;;0.60;99.90;;;;;;5028826;28;20381;-76
2023/03/11 03:58:10;;;;;;;2.53;0.63;;;0.50;99.90;;;;;;5046449;28;20029;-76
2023/03/11 04:00:36;;;;;;;2.13;0.60;;;0.50;99.90;;;;;;5028547;28;20404;-76
2023/03/11 04:03:02;;;;;;;2.53;1.20;;;0.50;99.90;;;;;;5045232;28;20076;-76
2023/03/11 04:05:28;;;;;;;1.97;0.50;;;0.50;99.90;;;;;;5029016;28;20048;-76
2023/03/11 04:07:53;;;;;;;0.60;0.47;;;0.50;99.90;;;;;;5044761;28;20120;-76
2023/03/11 04:10:19;;;;;;;0.60;0.50;;;0.50;99.90;;;;;;5028525;28;20048;-76
2023/03/11 04:12:45;;;;;;;0.60;0.60;;;0.40;99.90;;;;;;5046712;28;20047;-76
2023/03/11 04:15:11;;;;;;;2.13;1.03;;;0.40;99.90;;;;;;5045708;28;20048;-75
2023/03/11 04:17:37;;;;;;;0.83;0.40;;;0.40;99.90;;;;;;5045683;28;20086;-76
2023/03/11 04:20:06;;;;;;;13.23;0.70;;;0.40;99.90;;;;;;5045920;28;20112;-75
2023/03/11 04:22:31;;;;;;;1.13;0.80;;;0.30;99.90;;;;;;5046110;28;20049;-76
2023/03/11 04:24:57;;;;;;;0.90;0.60;;;0.30;99.90;;;;;;5062141;28;20049;-75
2023/03/11 04:27:22;;;;;;;1.87;0.60;;;0.30;99.90;;;;;;5028349;28;20037;-75
2023/03/11 04:29:48;;;;;;;4.13;1.00;;;0.20;99.90;;;;;;5046243;28;20118;-75
2023/03/11 04:32:14;;;;;;;1.37;0.43;;;0.20;99.90;;;;;;5044874;28;20417;-76
2023/03/11 04:34:39;;;;;;;0.67;0.67;;;0.20;99.90;;;;;;5046716;28;20488;-75
2023/03/11 04:37:05;;;;;;;1.23;0.90;;;0.10;99.90;;;;;;5045755;28;20073;-75
2023/03/11 04:39:30;;;;;;;0.93;0.90;;;0.10;99.90;;;;;;5045880;28;20477;-75
2023/03/11 04:41:56;;;;;;;3.10;1.67;;;0.10;99.90;;;;;;5028432;28;20049;-75
2023/03/11 04:44:22;;;;;;;1.97;0.63;;;0.10;99.90;;;;;;5045391;28;20110;-75
2023/03/11 04:46:47;;;;;;;1.10;1.00;;;0.00;99.90;;;;;;5045563;28;20540;-75
2023/03/11 04:49:13;;;;;;;0.67;0.63;;;0.00;99.90;;;;;;5026724;28;20501;-75
2023/03/11 04:51:39;;;;;;;0.43;0.37;;;-0.10;99.90;;;;;;5045384;28;20543;-75
2023/03/11 04:54:04;;;;;;;1.50;0.40;;;-0.10;99.90;;;;;;5027065;28;20386;-75
2023/03/11 04:56:30;;;;;;;1.60;1.27;;;-0.20;99.90;;;;;;5045718;28;20087;-76
2023/03/11 04:58:56;;;;;;;10.23;0.53;;;-0.20;99.90;;;;;;5046375;28;20106;-75
2023/03/11 05:01:21;;;;;;;1.23;0.67;;;-0.30;99.90;;;;;;5027381;28;20040;-75
2023/03/11 05:03:47;;;;;;;4.10;0.63;;;-0.30;99.90;;;;;;5026577;28;20084;-75
2023/03/11 05:06:12;;;;;;;0.47;0.40;;;-0.30;99.90;;;;;;5045218;28;20460;-75
2023/03/11 05:08:39;;;;;;;2.60;1.03;;;-0.30;99.90;;;;;;5045068;28;20083;-75
2023/03/11 05:11:05;;;;;;;0.63;0.63;;;-0.40;99.90;;;;;;5026678;28;20045;-75
2023/03/11 05:13:30;;;;;;;1.13;0.63;;;-0.40;99.90;;;;;;5027571;28;20037;-75
2023/03/11 05:15:56;;;;;;;0.93;0.60;;;-0.40;99.90;;;;;;5045226;28;20529;-75
2023/03/11 05:18:21;;;;;;;2.70;0.57;;;-0.40;99.90;;;;;;5043458;28;20071;-75
2023/03/11 05:20:47;;;;;;;1.50;0.80;;;-0.40;99.90;;;;;;5045106;28;20041;-75
2023/03/11 05:23:12;;;;;;;1.73;1.37;;;-0.50;99.90;;;;;;5027093;28;20055;-75
2023/03/11 05:25:38;;;;;;;3.30;0.80;;;-0.50;99.90;;;;;;5044900;28;20085;-75
2023/03/11 05:28:04;;;;;;;2.63;0.70;;;-0.60;99.90;;;;;;5044569;28;20482;-75
2023/03/11 05:30:30;;;;;;;1.23;0.60;;;-0.60;99.90;;;;;;5044784;28;20037;-75
2023/03/11 05:32:55;;;;;;;0.57;0.53;;;-0.60;99.90;;;;;;5044109;28;20091;-75
2023/03/11 05:35:21;;;;;;;0.63;0.60;;;-0.60;99.90;;;;;;5027185;28;20041;-75
2023/03/11 05:37:48;;;;;;;0.30;0.30;;;-0.60;99.90;;;;;;5044619;28;20056;-75
2023/03/11 05:40:15;;;;;;;1.80;0.70;;;-0.60;99.90;;;;;;5044167;28;20047;-75
2023/03/11 05:42:40;;;;;;;4.13;1.27;;;-0.60;99.90;;;;;;5044617;28;20095;-75
2023/03/11 05:45:07;;;;;;;5.50;1.23;;;-0.60;99.90;;;;;;5044226;28;20406;-74
2023/03/11 05:47:33;;;;;;;2.33;1.77;;;-0.60;99.90;;;;;;5043165;28;20462;-75
2023/03/11 05:49:58;;;;;;;0.83;0.83;;;-0.70;99.90;;;;;;5044704;28;20080;-75
2023/03/11 05:52:24;;;;;;;5.40;1.23;;;-0.70;99.90;;;;;;5044264;28;20082;-75
2023/03/11 05:54:50;;;;;;;1.90;0.60;;;-0.80;99.90;;;;;;5010202;28;20045;-75
2023/03/11 05:57:17;;;;;;;1.00;0.67;;;-0.80;99.90;;;;;;5044059;28;20037;-75
2023/03/11 05:59:43;;;;;;;1.20;0.70;;;-0.80;99.90;;;;;;5026641;28;20484;-75
2023/03/11 06:02:08;;;;;;;0.50;0.47;;;-0.80;99.90;;;;;;5042972;28;20049;-75
2023/03/11 06:04:34;;;;;;;2.17;0.90;;;-0.90;99.90;;;;;;5044693;28;20448;-75
2023/03/11 06:07:00;;;;;;;0.77;0.70;;;-0.90;99.90;;;;;;5044132;28;20041;-75
2023/03/11 06:09:25;;;;;;;5.07;0.77;;;-0.90;99.90;;;;;;5010625;28;20044;-75
2023/03/11 06:11:51;;;;;;;0.93;0.93;;;-0.90;99.90;;;;;;5044223;28;20045;-75
2023/03/11 06:14:16;;;;;;;1.50;0.77;;;-0.90;99.90;;;;;;5044154;28;20044;-75
2023/03/11 06:16:42;;;;;;;3.97;2.17;;;-1.00;99.90;;;;;;5044767;28;20493;-75
2023/03/11 06:19:08;;;;;;;3.27;0.87;;;-0.90;99.90;;;;;;5042536;28;20047;-75
2023/03/11 06:21:34;;;;;;;0.60;0.60;;;-1.00;99.90;;;;;;5044073;28;20032;-74
2023/03/11 06:23:59;;;;;;;2.20;1.53;;;-1.00;99.90;;;;;;5044431;28;20128;-75
2023/03/11 06:26:25;;;;;;;2.20;0.47;;;-1.00;99.90;;;;;;5044051;28;20514;-75
2023/03/11 06:28:51;;;;;;;2.40;0.80;;;-1.00;99.90;;;;;;5044158;28;20045;-75
2023/03/11 06:31:25;;;;;;;1.13;0.57;;;-1.00;99.90;;;;;;5047557;28;20094;-75
2023/03/11 06:33:52;;;;;;;0.60;0.60;;;-1.00;99.90;;;;;;5028666;28;20060;-75
2023/03/11 06:36:20;;;;;;;2.27;1.13;;;-0.90;99.90;;;;;;5048611;28;20048;-76
2023/03/11 06:38:47;;;;;;;1.33;0.87;;;-0.90;99.90;;;;;;5048442;28;20511;-76
2023/03/11 06:41:13;;;;;;;0.40;0.40;;;-0.90;99.90;;;;;;5030095;28;20432;-77
2023/03/11 06:43:38;;;;;;;1.50;0.73;;;-0.90;99.90;;;;;;5030122;28;20053;-76
2023/03/11 06:46:09;;;;;;;1.40;1.17;;;-0.90;99.90;;;;;;5047949;28;20481;-77
2023/03/11 06:48:35;;;;;;;1.87;0.90;;;-0.90;99.90;;;;;;5030437;28;20045;-76
2023/03/11 06:51:01;;;;;;;14.00;1.47;;;-0.80;99.90;;;;;;5058133;28;20572;-78
2023/03/11 06:53:27;;;;;;;3.03;0.80;;;-0.90;99.90;;;;;;5048548;28;20049;-76
2023/03/11 06:56:12;;;;;;;2.57;0.60;;;-0.90;99.90;;;;;;5044094;28;20041;-76
2023/03/11 06:58:40;;;;;;;1.23;0.80;;;-0.80;99.90;;;;;;5040489;28;20040;-76
2023/03/11 07:01:09;;;;;;;2.77;1.27;;;-0.80;99.90;;;;;;5047601;28;20045;-77
2023/03/11 07:03:35;;;;;;;1.50;1.13;;;-0.80;99.90;;;;;;5029035;28;20041;-75
2023/03/11 07:06:01;;;;;;;2.23;1.43;;;-0.80;99.90;;;;;;5050195;28;20037;-76
2023/03/11 07:08:27;;;;;;;3.73;1.40;;;-0.80;99.90;;;;;;5029958;28;20041;-76
2023/03/11 07:11:09;;;;;;;0.87;0.53;;;-0.80;99.90;;;;;;5052379;28;20048;-76
2023/03/11 07:13:35;;;;;;;1.50;0.90;;;-0.70;99.90;;;;;;5013360;28;20127;-76
2023/03/11 07:16:12;;;;;;;1.40;1.10;;;-0.70;99.90;;;;;;5048408;28;20291;-77
2023/03/11 07:18:38;;;;;;;1.57;1.47;;;-0.70;99.90;;;;;;5029370;28;20076;-76
2023/03/11 07:21:05;;;;;;;3.60;1.53;;;-0.70;99.90;;;;;;5031886;28;20044;-76
2023/03/11 07:23:31;;;;;;;2.17;1.60;;;-0.60;99.90;;;;;;5048879;28;20040;-77
2023/03/11 07:26:00;;;;;;;1.00;0.77;;;-0.60;99.90;;;;;;5047869;28;20045;-76
2023/03/11 07:28:27;;;;;;;4.63;1.30;;;-0.60;99.90;;;;;;5047913;28;20040;-77
2023/03/11 07:30:57;;;;;;;4.53;1.63;;;-0.50;99.90;;;;;;5047839;28;20128;-75
2023/03/11 07:33:23;;;;;;;2.87;0.90;;;-0.50;99.90;;;;;;5046623;28;20116;-76
2023/03/11 07:35:49;;;;;;;3.40;2.23;;;-0.40;99.90;;;;;;5063007;28;20401;-77
2023/03/11 07:38:16;;;;;;;2.70;1.00;;;-0.40;99.90;;;;;;5048067;28;20033;-76
2023/03/11 07:40:42;;;;;;;3.10;1.57;;;-0.30;99.90;;;;;;5048390;28;20056;-79
2023/03/11 07:43:08;;;;;;;3.10;2.17;;;-0.30;99.90;;;;;;5029406;28;20041;-75
2023/03/11 07:45:34;;;;;;;2.53;1.77;;;-0.20;99.90;;;;;;5047099;28;20189;-76
2023/03/11 07:48:00;;;;;;;3.40;2.40;;;-0.10;99.90;;;;;;5027320;28;20536;-76
2023/03/11 07:50:25;;;;;;;4.00;1.50;;;-0.10;99.90;;;;;;5045099;28;20037;-78
2023/03/11 07:52:51;;;;;;;4.53;2.13;;;0.00;99.90;;;;;;5037922;28;20045;-78
2023/03/11 07:55:17;;;;;;;5.27;2.07;;;0.00;99.90;;;;;;5028728;28;20063;-75
2023/03/11 07:57:42;;;;;;;11.50;2.73;;;0.00;99.90;;;;;;5029209;28;20041;-76
2023/03/11 08:00:09;;;;;;;2.43;1.50;;;0.10;99.90;;;;;;5043522;28;20322;-76
2023/03/11 08:02:35;;;;;;;1.83;1.73;;;0.20;99.90;;;;;;5046001;28;20122;-76
2023/03/11 08:05:01;;;;;;;1.43;0.80;;;0.20;99.90;;;;;;5020030;28;20053;-76
2023/03/11 08:07:26;;;;;;;1.13;1.03;;;0.20;99.90;;;;;;5009915;28;20053;-77
2023/03/11 08:09:52;;;;;;;9.43;1.73;;;0.30;99.90;;;;;;4992931;28;20080;-76
2023/03/11 08:12:18;;;;;;;11.17;2.47;;;0.30;99.90;;;;;;5013663;28;20484;-75
2023/03/11 08:14:43;;;;;;;1.67;0.90;;;0.40;99.90;;;;;;5029245;28;20044;-74
2023/03/11 08:17:09;;;;;;;1.33;0.90;;;0.40;99.90;;;;;;5028071;28;20041;-75
2023/03/11 08:19:35;;;;;;;1.60;1.13;;;0.40;99.90;;;;;;5045612;28;20036;-76
2023/03/11 08:22:02;;;;;;;7.20;2.53;;;0.50;99.90;;;;;;5012456;28;20041;-74
2023/03/11 08:24:28;;;;;;;5.03;1.67;;;0.50;99.90;;;;;;5046234;28;20044;-74
2023/03/11 08:26:55;;;;;;;3.23;1.83;;;0.50;99.90;;;;;;5045604;28;20033;-76
2023/03/11 08:29:22;;;;;;;1.30;1.00;;;0.60;99.90;;;;;;5045379;28;20053;-74
2023/03/11 08:31:48;;;;;;;4.37;1.80;;;0.60;99.90;;;;;;5044253;28;20489;-73
2023/03/11 08:34:14;;;;;;;3.37;1.37;;;0.60;99.90;;;;;;5028269;28;20052;-73
2023/03/11 08:36:39;;;;;;;7.13;1.57;;;0.70;99.90;;;;;;5046649;28;20037;-73
2023/03/11 08:39:05;;;;;;;2.13;0.83;;;0.70;99.90;;;;;;5046406;28;20098;-73
2023/03/11 08:41:31;;;;;;;6.00;3.30;;;0.70;99.90;;;;;;5061733;28;20071;-74
2023/03/11 08:43:57;;;;;;;1.70;0.97;;;0.80;99.90;;;;;;5028789;28;20053;-73
2023/03/11 08:46:28;;;;;;;3.97;1.30;;;0.80;99.90;;;;;;5045844;28;20516;-73
2023/03/11 08:48:54;;;;;;;2.03;1.17;;;0.80;99.90;;;;;;5028827;28;20400;-73
2023/03/11 08:51:21;;;;;;;2.37;1.27;;;0.90;99.90;;;;;;5027967;28;20071;-73
2023/03/11 08:53:47;;;;;;;2.50;0.90;;;0.90;99.90;;;;;;5045626;28;20052;-73
2023/03/11 08:56:12;;;;;;;3.73;1.17;;;1.00;99.90;;;;;;5011366;28;20489;-73
2023/03/11 08:58:38;;;;;;;4.30;1.60;;;1.00;99.90;;;;;;5045973;28;20055;-73
2023/03/11 09:01:05;;;;;;;1.57;0.90;;;1.00;99.90;;;;;;5045755;28;20049;-73
2023/03/11 09:03:34;;;;;;;5.77;2.10;;;1.10;99.90;;;;;;5044232;28;20497;-73
2023/03/11 09:06:02;;;;;;;1.30;1.10;;;1.10;99.90;;;;;;5027315;28;20111;-73
2023/03/11 09:08:28;;;;;;;8.93;2.13;;;1.20;99.90;;;;;;5024083;28;20493;-73
2023/03/11 09:10:54;;;;;;;5.07;2.40;;;1.20;99.90;;;;;;5028318;28;20045;-73
2023/03/11 09:13:20;;;;;;;2.93;1.73;;;1.30;99.90;;;;;;5028863;28;20551;-74
2023/03/11 09:15:47;;;;;;;3.63;1.83;;;1.30;99.90;;;;;;5028335;28;20044;-73
2023/03/11 09:18:14;;;;;;;2.17;1.20;;;1.30;99.90;;;;;;5050476;28;20043;-73
2023/03/11 09:20:41;;;;;;;1.20;1.00;;;1.40;99.90;;;;;;5022400;28;20049;-74
2023/03/11 09:23:08;;;;;;;5.07;1.27;;;1.40;99.90;;;;;;5041751;28;20128;-75
2023/03/11 09:25:33;;;;;;;2.17;1.20;;;1.40;99.90;;;;;;5033408;28;20076;-75
2023/03/11 09:27:59;;;;;;;4.83;3.43;;;1.50;99.90;;;;;;5048300;28;20702;-74
2023/03/11 09:30:25;;;;;;;54.10;6.47;;;1.50;99.90;;;;;;5054553;28;20091;-75
2023/03/11 09:32:50;;;;;;;7.70;1.80;;;1.50;99.90;;;;;;5064115;28;20106;-75
2023/03/11 09:35:16;;;;;;;3.97;1.70;;;1.60;99.90;;;;;;5045514;28;20041;-74
2023/03/11 09:37:42;;;;;;;1.23;1.03;;;1.60;99.90;;;;;;5045611;28;20041;-74
2023/03/11 09:40:11;;;;;;;13.07;2.60;;;1.70;99.90;;;;;;5028154;28;20079;-74
2023/03/11 09:42:53;;;;;;;2.47;1.10;;;1.70;99.90;;;;;;5028116;28;20049;-73
2023/03/11 09:45:24;;;;;;;3.23;1.20;;;1.80;99.90;;;;;;5027035;28;20045;-73
2023/03/11 09:47:54;;;;;;;10.13;1.97;;;1.80;99.90;;;;;;5040722;28;20298;-78
2023/03/11 09:50:52;;;;;;;2.43;0.93;;;1.80;99.90;;;;;;5016830;28;20511;-77
2023/03/11 09:53:45;;;;;;;2.47;1.20;;;1.90;99.90;;;;;;5045310;28;20045;-75
2023/03/11 09:56:30;;;;;;;24.40;1.33;;;2.00;99.90;;;;;;5042500;28;20053;-77
2023/03/11 09:59:01;;;;;;;3.07;1.43;;;2.00;99.90;;;;;;5043201;28;20045;-78
2023/03/11 10:01:33;;;;;;;3.13;1.70;;;2.10;99.90;;;;;;5045278;28;20583;-82
2023/03/11 10:04:02;;;;;;;;;;;2.10;99.90;;;;;;5047446;28;20082;-76
2023/03/11 10:06:29;;;;;;;2.27;0.80;;;2.10;99.90;;;;;;5045831;28;19927;-75
2023/03/11 10:09:29;;;;;;;1.77;1.13;;;2.10;99.90;;;;;;5028900;28;20128;-76
2023/03/11 10:12:42;;;;;;;6.57;1.93;;;2.10;99.90;;;;;;5027780;28;20067;-76
2023/03/11 10:15:32;;;;;;;1.20;0.50;;;2.10;99.90;;;;;;5018738;28;20060;-76
2023/03/11 10:18:23;;;;;;;2.73;2.10;;;2.10;99.90;;;;;;5008728;28;20116;-76
2023/03/11 10:20:59;;;;;;;4.77;1.60;;;2.20;99.90;;;;;;5038791;28;20041;-74
2023/03/11 10:23:47;;;;;;;1.63;0.90;;;2.20;99.90;;;;;;5010093;28;20548;-74
2023/03/11 10:26:19;;;;;;;0.83;0.80;;;2.20;99.90;;;;;;5013649;28;20053;-75
2023/03/11 10:28:48;;;;;;;1.27;1.17;;;2.30;99.90;;;;;;5008005;28;20078;-75
2023/03/11 10:31:48;;;;;;;2.67;1.47;;;2.30;99.90;;;;;;5039252;28;20174;-76
2023/03/11 10:34:31;;;;;;;16.77;2.57;;;2.40;99.90;;;;;;5055624;28;20064;-75
2023/03/11 10:37:23;;;;;;;4.40;1.95;;;2.50;99.90;;;;;;5027183;28;20094;-76
2023/03/11 10:39:48;;;;;;;1.97;1.27;;;2.50;99.90;;;;;;5014527;28;20103;-76
2023/03/11 10:42:22;;;;;;;1.90;1.10;;;2.60;99.90;;;;;;5043520;28;20033;-76
2023/03/11 10:44:47;;;;;;;6.17;2.23;;;2.60;99.90;;;;;;5045233;28;20468;-76
2023/03/11 10:47:23;;;;;;;1.70;1.10;;;2.70;99.90;;;;;;5038450;28;20116;-75
2023/03/11 10:49:49;;;;;;;3.60;0.87;;;2.70;99.90;;;;;;5040661;28;20384;-76
2023/03/11 10:52:15;;;;;;;1.07;0.80;;;2.80;99.90;;;;;;5021506;28;20743;-76
2023/03/11 10:54:46;;;;;;;2.27;0.40;;;2.80;99.90;;;;;;5033080;28;20200;-78
2023/03/11 10:57:25;;;;;;;1.10;0.80;;;2.80;99.90;;;;;;5011369;28;20084;-75
2023/03/11 10:59:56;;;;;;;4.80;1.70;;;2.90;99.90;;;;;;4992389;28;20072;-75
2023/03/11 11:02:31;;;;;;;9.43;1.83;;;2.90;99.90;;;;;;5021775;28;20494;-76
2023/03/11 11:05:05;;;;;;;2.27;1.40;;;2.90;99.90;;;;;;5006497;28;20129;-76
2023/03/11 11:07:34;;;;;;;1.87;1.07;;;2.90;99.90;;;;;;5026711;28;20045;-76
2023/03/11 11:10:14;;;;;;;2.95;0.98;;;3.00;99.90;;;;;;5044616;28;20045;-76
2023/03/11 11:12:57;;;;;;;1.80;0.80;;;3.00;99.90;;;;;;5035345;28;20456;-76
2023/03/11 11:15:30;;;;;;;3.67;1.67;;;3.10;99.90;;;;;;5044712;28;20083;-76
2023/03/11 11:17:59;;;;;;;2.20;1.00;;;3.10;99.90;;;;;;5047544;28;20069;-76
2023/03/11 11:20:27;;;;;;;0.60;0.60;;;3.10;99.90;;;;;;5048411;28;20048;-76
2023/03/11 11:22:59;;;;;;;7.63;1.42;;;3.20;99.90;;;;;;5047295;28;20045;-76
2023/03/11 11:25:37;;;;;;;1.13;0.60;;;3.20;99.90;;;;;;5045238;28;20037;-76
2023/03/11 11:28:19;;;;;;;5.13;1.20;;;3.30;99.90;;;;;;5047942;28;20049;-76
2023/03/11 11:30:55;;;;;;;;;;;3.30;99.90;;;;;;5046293;28;20123;-76
2023/03/11 11:33:28;;;;;;;3.38;1.23;;;3.40;99.90;;;;;;5045437;28;19925;-78
2023/03/11 11:35:57;;;;;;;1.27;1.00;;;3.50;99.90;;;;;;5014002;28;20037;-75
2023/03/11 11:38:25;;;;;;;0.95;0.90;;;3.50;99.90;;;;;;5047633;28;20519;-76
2023/03/11 11:40:53;;;;;;;2.35;1.48;;;3.60;99.90;;;;;;5047192;28;20052;-77
2023/03/11 11:43:31;;;;;;;1.13;0.77;;;3.60;99.90;;;;;;5046182;28;20489;-78
2023/03/11 11:46:04;;;;;;;0.80;0.80;;;3.60;99.90;;;;;;5000087;28;20044;-80
2023/03/11 11:49:01;;;;;;;2.80;1.38;;;3.70;99.90;;;;;;5047931;28;20049;-76
2023/03/11 11:51:59;;;;;;;2.28;1.75;;;3.70;99.90;;;;;;5024275;28;20045;-76
2023/03/11 11:54:37;;;;;;;0.63;0.50;;;3.70;99.90;;;;;;5030877;28;20049;-77
2023/03/11 11:57:17;;;;;;;0.77;0.77;;;3.70;99.90;;;;;;5028229;28;20099;-77
2023/03/11 11:59:43;;;;;;;1.80;0.88;;;3.80;99.90;;;;;;5017265;28;20091;-75
2023/03/11 12:02:21;;;;;;;0.93;0.93;;;3.70;99.90;;;;;;5036108;28;20393;-73
2023/03/11 12:04:56;;;;;;;0.75;0.40;;;3.80;99.90;;;;;;5045788;28;20497;-78
2023/03/11 12:07:44;;;;;;;6.95;1.67;;;3.80;99.90;;;;;;5028625;28;20144;-80
2023/03/11 12:10:25;;;;;;;1.40;1.10;;;3.80;99.90;;;;;;5016201;28;20111;-75
2023/03/11 12:13:13;;;;;;;16.02;1.33;;;3.90;99.90;;;;;;5048961;28;20048;-74
2023/03/11 12:15:47;;;;;;;5.53;0.93;;;3.90;99.90;;;;;;5027751;28;20052;-74
2023/03/11 12:18:41;;;;;;;1.50;0.80;;;4.00;99.90;;;;;;5020663;28;20041;-75
2023/03/11 12:21:26;;;;;;;0.60;0.60;;;4.00;99.90;;;;;;5016925;28;20033;-74
2023/03/11 12:24:06;;;;;;;1.80;1.13;;;4.10;99.90;;;;;;5009283;28;20045;-75
2023/03/11 12:26:36;;;;;;;1.88;1.13;;;4.10;99.90;;;;;;5017060;28;20045;-74
2023/03/11 12:29:20;;;;;;;1.50;1.40;;;4.20;99.90;;;;;;5044488;28;20465;-77
2023/03/11 12:31:47;;;;;;;0.75;0.57;;;4.20;99.90;;;;;;5002175;28;20045;-73
2023/03/11 12:34:16;;;;;;;0.90;0.52;;;4.30;99.90;;;;;;5019097;28;20134;-75
2023/03/11 12:36:44;;;;;;;3.55;0.85;;;4.30;99.90;;;;;;5033382;28;20434;-74
2023/03/11 12:39:29;;;;;;;2.20;1.35;;;4.30;99.90;;;;;;5043051;28;20536;-75
2023/03/11 12:42:21;;;;;;;11.60;2.63;;;4.40;99.90;;;;;;5043821;28;20529;-76
2023/03/11 12:44:48;;;;;;;1.45;0.85;;;4.40;99.90;;;;;;5025532;28;20047;-75
2023/03/11 12:47:13;;;;;;;0.55;0.40;;;4.40;99.90;;;;;;5002152;28;20508;-74
2023/03/11 12:49:56;;;;;;;1.35;0.60;;;4.50;99.90;;;;;;5042406;28;20060;-75
2023/03/11 12:52:25;;;;;;;;;;;4.50;99.90;;;;;;5006575;28;20041;-74
2023/03/11 12:54:57;;;;;;;1.45;0.40;;;4.50;99.90;;;;;;5009471;28;19925;-74
2023/03/11 12:57:29;;;;;;;1.73;1.10;;;4.50;99.90;;;;;;5020547;28;20056;-74
2023/03/11 13:00:16;;;;;;;1.02;0.93;;;4.60;99.90;;;;;;5049063;28;20045;-74
2023/03/11 13:03:07;;;;;;;1.60;1.38;;;4.60;99.90;;;;;;5047093;28;20128;-74
2023/03/11 13:05:57;;;;;;;0.57;0.52;;;4.60;99.90;;;;;;5037776;28;20107;-75
2023/03/11 13:08:44;;;;;;;0.68;0.60;;;4.60;99.90;;;;;;5026371;28;20409;-75